Plan B — ZCND5 — position and weather

sailwx.info

Track history (hours):
 
Tides and Currents Weather Stations Pressure Air Temp Water Temp Dewpoint Dewpoint Depression Visibility Wind Speed Wind Dir Waves Ship Positions

Plan B

Last reported at 2014-Nov-14 18:25 UTC. Time now 2014-Nov-26 16:13 UTC.
Position S 25°18' E 153°23'.
Warning: this ship's position is 11 days out of date.

Length 49 m; draft 3.2 m.

Type: Pleasure craft. MMSI: 319075000.

Date/timePositionNaut miles runAvg speedWind from/ knotsBaromVisibWave heightAir tempDewpointWater temp
2014-Nov-14 18:25S 25°18' E 153°23'910.8
2014-Nov-14 17:33S 25°28' E 153°23'1110.9
2014-Nov-14 16:33S 25°39' E 153°23'1110.9
2014-Nov-14 15:33S 25°50' E 153°22'1110.7
2014-Nov-14 14:33S 26°00' E 153°20'2110.4
2014-Nov-14 12:33S 26°21' E 153°17'1110.5
2014-Nov-14 11:33S 26°31' E 153°15'1010.2
2014-Nov-14 10:33S 26°41' E 153°13'10 9.9
2014-Nov-14 09:33S 26°50' E 153°09'1111.4
2014-Nov-14 08:33S 27°00' E 153°15'1010.3
2014-Nov-14 07:33S 27°09' E 153°20'9 9.3
2014-Nov-14 06:33S 27°16' E 153°13'8 8.3
2014-Nov-14 05:33S 27°24' E 153°09'4 0.4
2014-Nov-13 20:05S 27°27' E 153°06'0 0.0
2014-Nov-13 19:29S 27°27' E 153°06'0 0.0
2014-Nov-13 18:29S 27°27' E 153°06'0 0.0
2014-Nov-13 17:11S 27°27' E 153°06'0 0.0
2014-Nov-13 16:17S 27°27' E 153°06'0 0.0
2014-Nov-12 19:10S 27°27' E 153°06'0 0.0
2014-Nov-12 18:28S 27°27' E 153°06'0 0.0
2014-Nov-12 17:16S 27°27' E 153°06'0 0.0
2014-Nov-11 20:22S 27°27' E 153°06'0 0.0
2014-Nov-11 19:25S 27°27' E 153°06'0 0.0
2014-Nov-11 18:28S 27°27' E 153°06'0 0.0
2014-Nov-11 17:10S 27°27' E 153°06'0 0.0
2014-Nov-10 20:24S 27°27' E 153°06'0 0.0
2014-Nov-10 19:33S 27°27' E 153°06'0 0.0
2014-Nov-10 18:33S 27°27' E 153°06'0 0.0
2014-Nov-10 17:33S 27°27' E 153°06'0 0.0
2014-Nov-10 16:33S 27°27' E 153°06'0 0.0
2014-Nov-10 15:27S 27°27' E 153°06'0 0.0
2014-Nov-10 14:30S 27°27' E 153°06'0 0.0
2014-Nov-10 13:33S 27°27' E 153°06'0 0.0
2014-Nov-10 11:30S 27°27' E 153°06'0 0.0
2014-Nov-10 10:24S 27°27' E 153°06'0 0.0
2014-Nov-08 19:20S 27°27' E 153°06'0 0.0
2014-Nov-08 18:32S 27°27' E 153°06'0 0.0
2014-Nov-08 17:32S 27°27' E 153°06'0 0.0
2014-Nov-08 16:32S 27°27' E 153°06'0 0.0
2014-Nov-08 15:26S 27°27' E 153°06'  
Track history (hours):
 
Tides and Currents Weather Stations Pressure Air Temp Water Temp Dewpoint Dewpoint Depression Visibility Wind Speed Wind Dir Waves Ship Positions

Plan B

Last reported at 2014-Nov-14 18:25 UTC. Time now 2014-Nov-26 16:13 UTC.
Position S 25°18' E 153°23'.
Warning: this ship's position is 11 days out of date.

Length 49 m; draft 3.2 m.

Type: Pleasure craft. MMSI: 319075000.

Date/timePositionNaut miles runAvg speedWind from/ knotsBaromVisibWave heightAir tempDewpointWater temp
2014-Nov-14 18:25S 25°18' E 153°23'910.8
2014-Nov-14 17:33S 25°28' E 153°23'1110.9
2014-Nov-14 16:33S 25°39' E 153°23'1110.9
2014-Nov-14 15:33S 25°50' E 153°22'1110.7
2014-Nov-14 14:33S 26°00' E 153°20'2110.4
2014-Nov-14 12:33S 26°21' E 153°17'1110.5
2014-Nov-14 11:33S 26°31' E 153°15'1010.2
2014-Nov-14 10:33S 26°41' E 153°13'10 9.9
2014-Nov-14 09:33S 26°50' E 153°09'1111.4
2014-Nov-14 08:33S 27°00' E 153°15'1010.3
2014-Nov-14 07:33S 27°09' E 153°20'9 9.3
2014-Nov-14 06:33S 27°16' E 153°13'8 8.3
2014-Nov-14 05:33S 27°24' E 153°09'4 0.4
2014-Nov-13 20:05S 27°27' E 153°06'0 0.0
2014-Nov-13 19:29S 27°27' E 153°06'0 0.0
2014-Nov-13 18:29S 27°27' E 153°06'0 0.0
2014-Nov-13 17:11S 27°27' E 153°06'0 0.0
2014-Nov-13 16:17S 27°27' E 153°06'0 0.0
2014-Nov-12 19:10S 27°27' E 153°06'0 0.0
2014-Nov-12 18:28S 27°27' E 153°06'0 0.0
2014-Nov-12 17:16S 27°27' E 153°06'0 0.0
2014-Nov-11 20:22S 27°27' E 153°06'0 0.0
2014-Nov-11 19:25S 27°27' E 153°06'0 0.0
2014-Nov-11 18:28S 27°27' E 153°06'0 0.0
2014-Nov-11 17:10S 27°27' E 153°06'0 0.0
2014-Nov-10 20:24S 27°27' E 153°06'0 0.0
2014-Nov-10 19:33S 27°27' E 153°06'0 0.0
2014-Nov-10 18:33S 27°27' E 153°06'0 0.0
2014-Nov-10 17:33S 27°27' E 153°06'0 0.0
2014-Nov-10 16:33S 27°27' E 153°06'0 0.0
2014-Nov-10 15:27S 27°27' E 153°06'0 0.0
2014-Nov-10 14:30S 27°27' E 153°06'0 0.0
2014-Nov-10 13:33S 27°27' E 153°06'0 0.0
2014-Nov-10 11:30S 27°27' E 153°06'0 0.0
2014-Nov-10 10:24S 27°27' E 153°06'0 0.0
2014-Nov-08 19:20S 27°27' E 153°06'0 0.0
2014-Nov-08 18:32S 27°27' E 153°06'0 0.0
2014-Nov-08 17:32S 27°27' E 153°06'0 0.0
2014-Nov-08 16:32S 27°27' E 153°06'0 0.0
2014-Nov-08 15:26S 27°27' E 153°06'  

Dump ship's entire track history